sensor_id;sensor_type;location;lat;lon;timestamp;temperature;humidity
75819;DHT22;64453;51.944;9.796;2023-05-28T00:00:31;15.40;51.10
75819;DHT22;64453;51.944;9.796;2023-05-28T00:02:57;15.60;50.80
75819;DHT22;64453;51.944;9.796;2023-05-28T00:05:25;15.10;50.90
75819;DHT22;64453;51.944;9.796;2023-05-28T00:07:52;15.40;51.20
75819;DHT22;64453;51.944;9.796;2023-05-28T00:10:18;15.30;50.40
75819;DHT22;64453;51.944;9.796;2023-05-28T00:12:45;15.20;51.00
75819;DHT22;64453;51.944;9.796;2023-05-28T00:15:12;15.40;50.90
75819;DHT22;64453;51.944;9.796;2023-05-28T00:17:40;15.20;50.10
75819;DHT22;64453;51.944;9.796;2023-05-28T00:20:07;14.90;50.70
75819;DHT22;64453;51.944;9.796;2023-05-28T00:22:35;15.00;50.90
75819;DHT22;64453;51.944;9.796;2023-05-28T00:25:04;15.10;50.90
75819;DHT22;64453;51.944;9.796;2023-05-28T00:27:31;15.10;50.50
75819;DHT22;64453;51.944;9.796;2023-05-28T00:29:58;15.30;50.40
75819;DHT22;64453;51.944;9.796;2023-05-28T00:32:25;15.60;50.20
75819;DHT22;64453;51.944;9.796;2023-05-28T00:34:53;15.30;50.10
75819;DHT22;64453;51.944;9.796;2023-05-28T00:37:21;15.20;50.20
75819;DHT22;64453;51.944;9.796;2023-05-28T00:39:48;14.90;50.00
75819;DHT22;64453;51.944;9.796;2023-05-28T00:42:15;14.90;50.20
75819;DHT22;64453;51.944;9.796;2023-05-28T00:44:41;14.70;50.00
75819;DHT22;64453;51.944;9.796;2023-05-28T00:47:10;14.70;50.20
75819;DHT22;64453;51.944;9.796;2023-05-28T00:49:36;14.50;50.40
75819;DHT22;64453;51.944;9.796;2023-05-28T00:52:05;14.30;51.10
75819;DHT22;64453;51.944;9.796;2023-05-28T00:54:33;14.20;51.40
75819;DHT22;64453;51.944;9.796;2023-05-28T00:57:00;13.90;52.00
75819;DHT22;64453;51.944;9.796;2023-05-28T00:59:28;13.80;51.90
75819;DHT22;64453;51.944;9.796;2023-05-28T01:01:55;13.50;52.60
75819;DHT22;64453;51.944;9.796;2023-05-28T01:04:23;13.50;53.10
75819;DHT22;64453;51.944;9.796;2023-05-28T01:06:54;13.90;52.80
75819;DHT22;64453;51.944;9.796;2023-05-28T01:09:23;13.90;52.40
75819;DHT22;64453;51.944;9.796;2023-05-28T01:11:51;14.20;51.50
75819;DHT22;64453;51.944;9.796;2023-05-28T01:14:19;14.40;51.30
75819;DHT22;64453;51.944;9.796;2023-05-28T01:16:47;14.80;50.70
75819;DHT22;64453;51.944;9.796;2023-05-28T01:19:16;15.00;50.10
75819;DHT22;64453;51.944;9.796;2023-05-28T01:21:45;15.00;49.90
75819;DHT22;64453;51.944;9.796;2023-05-28T01:24:14;15.10;49.60
75819;DHT22;64453;51.944;9.796;2023-05-28T01:26:41;14.60;49.60
75819;DHT22;64453;51.944;9.796;2023-05-28T01:29:15;14.50;49.80
75819;DHT22;64453;51.944;9.796;2023-05-28T01:31:52;14.10;50.70
75819;DHT22;64453;51.944;9.796;2023-05-28T01:34:21;14.00;51.00
75819;DHT22;64453;51.944;9.796;2023-05-28T01:36:51;14.00;50.90
75819;DHT22;64453;51.944;9.796;2023-05-28T01:39:25;13.80;50.70
75819;DHT22;64453;51.944;9.796;2023-05-28T01:41:54;13.80;51.30
75819;DHT22;64453;51.944;9.796;2023-05-28T01:44:22;14.10;51.00
75819;DHT22;64453;51.944;9.796;2023-05-28T01:46:50;13.70;51.10
75819;DHT22;64453;51.944;9.796;2023-05-28T01:49:19;13.70;51.20
75819;DHT22;64453;51.944;9.796;2023-05-28T01:51:47;13.50;52.00
75819;DHT22;64453;51.944;9.796;2023-05-28T01:54:14;13.60;51.90
75819;DHT22;64453;51.944;9.796;2023-05-28T01:56:42;13.60;51.50
75819;DHT22;64453;51.944;9.796;2023-05-28T01:59:09;13.50;51.50
75819;DHT22;64453;51.944;9.796;2023-05-28T02:01:36;13.50;51.30
75819;DHT22;64453;51.944;9.796;2023-05-28T02:04:03;13.20;52.00
75819;DHT22;64453;51.944;9.796;2023-05-28T02:06:32;13.70;51.60
75819;DHT22;64453;51.944;9.796;2023-05-28T02:09:00;13.90;50.60
75819;DHT22;64453;51.944;9.796;2023-05-28T02:11:27;13.70;51.10
75819;DHT22;64453;51.944;9.796;2023-05-28T02:13:55;13.70;51.20
75819;DHT22;64453;51.944;9.796;2023-05-28T02:16:22;13.70;50.90
75819;DHT22;64453;51.944;9.796;2023-05-28T02:18:51;13.30;51.90
75819;DHT22;64453;51.944;9.796;2023-05-28T02:21:18;13.00;52.20
75819;DHT22;64453;51.944;9.796;2023-05-28T02:23:48;13.30;51.70
75819;DHT22;64453;51.944;9.796;2023-05-28T02:26:15;13.30;51.70
75819;DHT22;64453;51.944;9.796;2023-05-28T02:28:42;13.60;51.50
75819;DHT22;64453;51.944;9.796;2023-05-28T02:31:11;13.30;51.50
75819;DHT22;64453;51.944;9.796;2023-05-28T02:33:39;13.00;51.00
75819;DHT22;64453;51.944;9.796;2023-05-28T02:36:07;13.40;50.90
75819;DHT22;64453;51.944;9.796;2023-05-28T02:38:37;13.30;50.80
75819;DHT22;64453;51.944;9.796;2023-05-28T02:41:04;13.10;51.40
75819;DHT22;64453;51.944;9.796;2023-05-28T02:43:31;13.10;51.40
75819;DHT22;64453;51.944;9.796;2023-05-28T02:45:58;13.20;51.80
75819;DHT22;64453;51.944;9.796;2023-05-28T02:48:26;13.00;51.50
75819;DHT22;64453;51.944;9.796;2023-05-28T02:50:53;13.10;51.80
75819;DHT22;64453;51.944;9.796;2023-05-28T02:53:21;13.10;51.70
75819;DHT22;64453;51.944;9.796;2023-05-28T02:55:49;13.20;51.50
75819;DHT22;64453;51.944;9.796;2023-05-28T02:58:16;13.00;50.90
75819;DHT22;64453;51.944;9.796;2023-05-28T03:00:44;13.40;50.70
75819;DHT22;64453;51.944;9.796;2023-05-28T03:03:11;13.40;50.50
75819;DHT22;64453;51.944;9.796;2023-05-28T03:05:39;13.20;50.40
75819;DHT22;64453;51.944;9.796;2023-05-28T03:08:07;13.50;50.10
75819;DHT22;64453;51.944;9.796;2023-05-28T03:10:34;12.80;51.00
75819;DHT22;64453;51.944;9.796;2023-05-28T03:13:01;12.50;51.40
75819;DHT22;64453;51.944;9.796;2023-05-28T03:15:27;12.40;53.00
75819;DHT22;64453;51.944;9.796;2023-05-28T03:17:55;12.60;52.50
75819;DHT22;64453;51.944;9.796;2023-05-28T03:20:21;12.80;52.30
75819;DHT22;64453;51.944;9.796;2023-05-28T03:22:54;13.00;51.60
75819;DHT22;64453;51.944;9.796;2023-05-28T03:25:22;13.00;50.80
75819;DHT22;64453;51.944;9.796;2023-05-28T03:27:50;12.60;51.40
75819;DHT22;64453;51.944;9.796;2023-05-28T03:30:17;12.60;52.30
75819;DHT22;64453;51.944;9.796;2023-05-28T03:32:43;12.60;52.00
75819;DHT22;64453;51.944;9.796;2023-05-28T03:35:10;12.80;51.80
75819;DHT22;64453;51.944;9.796;2023-05-28T03:37:37;13.00;51.70
75819;DHT22;64453;51.944;9.796;2023-05-28T03:40:07;12.70;52.10
75819;DHT22;64453;51.944;9.796;2023-05-28T03:42:35;12.50;52.60
75819;DHT22;64453;51.944;9.796;2023-05-28T03:45:02;12.10;53.80
75819;DHT22;64453;51.944;9.796;2023-05-28T03:47:30;12.30;53.60
75819;DHT22;64453;51.944;9.796;2023-05-28T03:49:58;12.40;53.30
75819;DHT22;64453;51.944;9.796;2023-05-28T03:52:25;12.40;53.90
75819;DHT22;64453;51.944;9.796;2023-05-28T03:54:53;12.70;52.90
75819;DHT22;64453;51.944;9.796;2023-05-28T03:57:21;13.10;52.20
75819;DHT22;64453;51.944;9.796;2023-05-28T03:59:48;13.30;51.80
75819;DHT22;64453;51.944;9.796;2023-05-28T04:02:15;13.40;51.80
75819;DHT22;64453;51.944;9.796;2023-05-28T04:04:42;13.30;51.90
75819;DHT22;64453;51.944;9.796;2023-05-28T04:07:10;13.10;52.10
75819;DHT22;64453;51.944;9.796;2023-05-28T04:09:37;13.00;52.10
75819;DHT22;64453;51.944;9.796;2023-05-28T04:12:04;13.20;52.00
75819;DHT22;64453;51.944;9.796;2023-05-28T04:14:34;13.00;52.10
75819;DHT22;64453;51.944;9.796;2023-05-28T04:17:01;13.00;52.00
75819;DHT22;64453;51.944;9.796;2023-05-28T04:19:28;13.10;52.50
75819;DHT22;64453;51.944;9.796;2023-05-28T04:21:55;13.00;52.00
75819;DHT22;64453;51.944;9.796;2023-05-28T04:24:22;12.90;52.70
75819;DHT22;64453;51.944;9.796;2023-05-28T04:26:49;12.80;53.20
75819;DHT22;64453;51.944;9.796;2023-05-28T04:29:16;12.90;53.40
75819;DHT22;64453;51.944;9.796;2023-05-28T04:31:45;12.70;53.60
75819;DHT22;64453;51.944;9.796;2023-05-28T04:34:13;13.00;53.80
75819;DHT22;64453;51.944;9.796;2023-05-28T04:36:42;13.10;53.70
75819;DHT22;64453;51.944;9.796;2023-05-28T04:39:09;13.40;53.70
75819;DHT22;64453;51.944;9.796;2023-05-28T04:41:36;13.30;53.70
75819;DHT22;64453;51.944;9.796;2023-05-28T04:44:03;13.30;54.00
75819;DHT22;64453;51.944;9.796;2023-05-28T04:46:30;13.30;54.20
75819;DHT22;64453;51.944;9.796;2023-05-28T04:49:00;13.10;55.10
75819;DHT22;64453;51.944;9.796;2023-05-28T04:51:27;12.60;57.20
75819;DHT22;64453;51.944;9.796;2023-05-28T04:53:54;12.70;57.50
75819;DHT22;64453;51.944;9.796;2023-05-28T04:56:20;12.90;57.40
75819;DHT22;64453;51.944;9.796;2023-05-28T04:58:48;13.20;57.40
75819;DHT22;64453;51.944;9.796;2023-05-28T05:01:15;13.40;56.90
75819;DHT22;64453;51.944;9.796;2023-05-28T05:03:42;13.50;57.00
75819;DHT22;64453;51.944;9.796;2023-05-28T05:06:10;13.80;56.80
75819;DHT22;64453;51.944;9.796;2023-05-28T05:08:37;14.00;56.50
75819;DHT22;64453;51.944;9.796;2023-05-28T05:11:04;14.20;56.30
75819;DHT22;64453;51.944;9.796;2023-05-28T05:13:32;14.30;56.10
75819;DHT22;64453;51.944;9.796;2023-05-28T05:15:59;14.20;56.20
75819;DHT22;64453;51.944;9.796;2023-05-28T05:18:26;14.40;56.30
75819;DHT22;64453;51.944;9.796;2023-05-28T05:20:52;14.40;56.30
75819;DHT22;64453;51.944;9.796;2023-05-28T05:23:22;14.50;56.50
75819;DHT22;64453;51.944;9.796;2023-05-28T05:25:49;14.30;56.50
75819;DHT22;64453;51.944;9.796;2023-05-28T05:28:16;14.20;56.20
75819;DHT22;64453;51.944;9.796;2023-05-28T05:30:42;14.40;56.30
75819;DHT22;64453;51.944;9.796;2023-05-28T05:33:09;14.30;56.90
75819;DHT22;64453;51.944;9.796;2023-05-28T05:35:36;14.20;57.90
75819;DHT22;64453;51.944;9.796;2023-05-28T05:38:03;14.30;58.30
75819;DHT22;64453;51.944;9.796;2023-05-28T05:40:32;14.30;58.00
75819;DHT22;64453;51.944;9.796;2023-05-28T05:42:59;14.50;58.60
75819;DHT22;64453;51.944;9.796;2023-05-28T05:45:26;14.50;59.10
75819;DHT22;64453;51.944;9.796;2023-05-28T05:47:53;14.70;59.10
75819;DHT22;64453;51.944;9.796;2023-05-28T05:50:20;14.60;59.50
75819;DHT22;64453;51.944;9.796;2023-05-28T05:52:47;14.70;59.30
75819;DHT22;64453;51.944;9.796;2023-05-28T05:55:14;14.90;59.00
75819;DHT22;64453;51.944;9.796;2023-05-28T05:57:42;14.80;58.70
75819;DHT22;64453;51.944;9.796;2023-05-28T06:00:10;15.00;59.00
75819;DHT22;64453;51.944;9.796;2023-05-28T06:02:38;15.00;59.20
75819;DHT22;64453;51.944;9.796;2023-05-28T06:05:06;14.90;59.80
75819;DHT22;64453;51.944;9.796;2023-05-28T06:07:33;14.80;61.10
75819;DHT22;64453;51.944;9.796;2023-05-28T06:10:00;15.00;60.80
75819;DHT22;64453;51.944;9.796;2023-05-28T06:12:27;15.00;61.00
75819;DHT22;64453;51.944;9.796;2023-05-28T06:14:55;15.00;60.80
75819;DHT22;64453;51.944;9.796;2023-05-28T06:17:22;15.00;61.80
75819;DHT22;64453;51.944;9.796;2023-05-28T06:19:49;15.10;62.10
75819;DHT22;64453;51.944;9.796;2023-05-28T06:22:16;15.20;61.90
75819;DHT22;64453;51.944;9.796;2023-05-28T06:24:43;15.20;62.10
75819;DHT22;64453;51.944;9.796;2023-05-28T06:27:11;15.30;62.10
75819;DHT22;64453;51.944;9.796;2023-05-28T06:29:38;15.30;62.60
75819;DHT22;64453;51.944;9.796;2023-05-28T06:32:08;15.40;62.90
75819;DHT22;64453;51.944;9.796;2023-05-28T06:34:35;15.50;63.40
75819;DHT22;64453;51.944;9.796;2023-05-28T06:37:02;15.60;62.40
75819;DHT22;64453;51.944;9.796;2023-05-28T06:39:29;15.70;62.20
75819;DHT22;64453;51.944;9.796;2023-05-28T06:41:56;15.70;63.00
75819;DHT22;64453;51.944;9.796;2023-05-28T06:44:23;15.80;63.50
75819;DHT22;64453;51.944;9.796;2023-05-28T06:46:50;15.80;64.10
75819;DHT22;64453;51.944;9.796;2023-05-28T06:49:18;15.90;64.60
75819;DHT22;64453;51.944;9.796;2023-05-28T06:51:45;15.90;64.90
75819;DHT22;64453;51.944;9.796;2023-05-28T06:54:12;16.00;65.70
75819;DHT22;64453;51.944;9.796;2023-05-28T06:56:39;16.10;64.70
75819;DHT22;64453;51.944;9.796;2023-05-28T06:59:06;16.00;64.20
75819;DHT22;64453;51.944;9.796;2023-05-28T07:01:33;16.20;64.70
75819;DHT22;64453;51.944;9.796;2023-05-28T07:04:00;16.20;64.70
75819;DHT22;64453;51.944;9.796;2023-05-28T07:06:29;16.20;65.40
75819;DHT22;64453;51.944;9.796;2023-05-28T07:08:57;16.30;65.10
75819;DHT22;64453;51.944;9.796;2023-05-28T07:11:24;16.30;64.20
75819;DHT22;64453;51.944;9.796;2023-05-28T07:13:51;16.30;64.10
75819;DHT22;64453;51.944;9.796;2023-05-28T07:16:20;16.40;64.30
75819;DHT22;64453;51.944;9.796;2023-05-28T07:18:47;16.50;64.60
75819;DHT22;64453;51.944;9.796;2023-05-28T07:21:14;16.50;64.80
75819;DHT22;64453;51.944;9.796;2023-05-28T07:23:42;16.50;64.50
75819;DHT22;64453;51.944;9.796;2023-05-28T07:26:09;16.60;64.30
75819;DHT22;64453;51.944;9.796;2023-05-28T07:28:37;16.70;64.50
75819;DHT22;64453;51.944;9.796;2023-05-28T07:31:04;16.70;64.10
75819;DHT22;64453;51.944;9.796;2023-05-28T07:33:31;16.80;63.60
75819;DHT22;64453;51.944;9.796;2023-05-28T07:35:58;16.80;62.20
75819;DHT22;64453;51.944;9.796;2023-05-28T07:38:25;16.80;62.70
75819;DHT22;64453;51.944;9.796;2023-05-28T07:40:53;16.90;63.20
75819;DHT22;64453;51.944;9.796;2023-05-28T07:43:21;16.90;63.40
75819;DHT22;64453;51.944;9.796;2023-05-28T07:45:48;17.00;63.50
75819;DHT22;64453;51.944;9.796;2023-05-28T07:48:15;17.00;63.20
75819;DHT22;64453;51.944;9.796;2023-05-28T07:50:42;17.10;62.50
75819;DHT22;64453;51.944;9.796;2023-05-28T07:53:09;17.10;63.30
75819;DHT22;64453;51.944;9.796;2023-05-28T07:55:36;17.20;64.30
75819;DHT22;64453;51.944;9.796;2023-05-28T07:58:04;17.20;61.80
75819;DHT22;64453;51.944;9.796;2023-05-28T08:00:31;17.30;60.20
75819;DHT22;64453;51.944;9.796;2023-05-28T08:02:58;17.30;56.60
75819;DHT22;64453;51.944;9.796;2023-05-28T08:05:25;17.40;58.20
75819;DHT22;64453;51.944;9.796;2023-05-28T08:07:52;17.20;59.20
75819;DHT22;64453;51.944;9.796;2023-05-28T08:10:18;17.50;58.30
75819;DHT22;64453;51.944;9.796;2023-05-28T08:12:46;17.50;57.30
75819;DHT22;64453;51.944;9.796;2023-05-28T08:15:14;17.50;54.40
75819;DHT22;64453;51.944;9.796;2023-05-28T08:17:41;17.60;55.00
75819;DHT22;64453;51.944;9.796;2023-05-28T08:20:08;17.60;56.90
75819;DHT22;64453;51.944;9.796;2023-05-28T08:22:37;17.60;55.00
75819;DHT22;64453;51.944;9.796;2023-05-28T08:25:04;17.70;56.00
75819;DHT22;64453;51.944;9.796;2023-05-28T08:27:33;17.70;56.90
75819;DHT22;64453;51.944;9.796;2023-05-28T08:30:00;17.70;54.40
75819;DHT22;64453;51.944;9.796;2023-05-28T08:32:28;17.80;54.90
75819;DHT22;64453;51.944;9.796;2023-05-28T08:34:55;17.90;54.70
75819;DHT22;64453;51.944;9.796;2023-05-28T08:37:22;17.90;52.70
75819;DHT22;64453;51.944;9.796;2023-05-28T08:39:49;17.90;49.60
75819;DHT22;64453;51.944;9.796;2023-05-28T08:42:15;18.00;49.10
75819;DHT22;64453;51.944;9.796;2023-05-28T08:44:43;18.00;50.80
75819;DHT22;64453;51.944;9.796;2023-05-28T08:47:10;18.10;49.90
75819;DHT22;64453;51.944;9.796;2023-05-28T08:49:42;18.10;49.70
75819;DHT22;64453;51.944;9.796;2023-05-28T08:52:12;18.20;48.60
75819;DHT22;64453;51.944;9.796;2023-05-28T08:54:41;18.30;49.00
75819;DHT22;64453;51.944;9.796;2023-05-28T08:57:09;18.30;47.70
75819;DHT22;64453;51.944;9.796;2023-05-28T08:59:36;18.40;48.00
75819;DHT22;64453;51.944;9.796;2023-05-28T09:02:04;18.20;48.00
75819;DHT22;64453;51.944;9.796;2023-05-28T09:04:31;18.40;48.80
75819;DHT22;64453;51.944;9.796;2023-05-28T09:06:59;18.50;44.50
75819;DHT22;64453;51.944;9.796;2023-05-28T09:09:27;18.40;46.70
75819;DHT22;64453;51.944;9.796;2023-05-28T09:11:57;18.50;47.60
75819;DHT22;64453;51.944;9.796;2023-05-28T09:14:29;18.60;46.10
75819;DHT22;64453;51.944;9.796;2023-05-28T09:16:56;18.60;46.40
75819;DHT22;64453;51.944;9.796;2023-05-28T09:19:24;18.70;44.20
75819;DHT22;64453;51.944;9.796;2023-05-28T09:21:53;18.60;42.20
75819;DHT22;64453;51.944;9.796;2023-05-28T09:24:24;18.70;40.60
75819;DHT22;64453;51.944;9.796;2023-05-28T09:26:53;18.80;40.20
75819;DHT22;64453;51.944;9.796;2023-05-28T09:29:22;18.80;40.90
75819;DHT22;64453;51.944;9.796;2023-05-28T09:31:54;18.90;41.80
75819;DHT22;64453;51.944;9.796;2023-05-28T09:34:25;18.90;43.30
75819;DHT22;64453;51.944;9.796;2023-05-28T09:36:53;19.00;44.30
75819;DHT22;64453;51.944;9.796;2023-05-28T09:39:25;19.10;40.70
75819;DHT22;64453;51.944;9.796;2023-05-28T09:41:58;19.20;42.10
75819;DHT22;64453;51.944;9.796;2023-05-28T09:44:30;19.20;43.20
75819;DHT22;64453;51.944;9.796;2023-05-28T09:46:57;19.20;44.70
75819;DHT22;64453;51.944;9.796;2023-05-28T09:49:27;19.30;43.70
75819;DHT22;64453;51.944;9.796;2023-05-28T09:51:57;19.30;41.00
75819;DHT22;64453;51.944;9.796;2023-05-28T09:54:29;19.40;41.20
75819;DHT22;64453;51.944;9.796;2023-05-28T09:56:58;19.40;38.90
75819;DHT22;64453;51.944;9.796;2023-05-28T09:59:29;19.50;39.20
75819;DHT22;64453;51.944;9.796;2023-05-28T10:02:00;19.60;41.60
75819;DHT22;64453;51.944;9.796;2023-05-28T10:04:33;19.70;42.50
75819;DHT22;64453;51.944;9.796;2023-05-28T10:07:04;19.80;40.40
75819;DHT22;64453;51.944;9.796;2023-05-28T10:09:34;20.00;36.60
75819;DHT22;64453;51.944;9.796;2023-05-28T10:12:08;19.90;38.80
75819;DHT22;64453;51.944;9.796;2023-05-28T10:14:37;19.90;41.30
75819;DHT22;64453;51.944;9.796;2023-05-28T10:17:05;19.90;42.40
75819;DHT22;64453;51.944;9.796;2023-05-28T10:19:34;19.80;38.30
75819;DHT22;64453;51.944;9.796;2023-05-28T10:22:02;19.80;41.30
75819;DHT22;64453;51.944;9.796;2023-05-28T10:24:31;19.80;42.50
75819;DHT22;64453;51.944;9.796;2023-05-28T10:26:59;19.80;43.20
75819;DHT22;64453;51.944;9.796;2023-05-28T10:29:26;19.80;38.80
75819;DHT22;64453;51.944;9.796;2023-05-28T10:31:59;19.80;39.50
75819;DHT22;64453;51.944;9.796;2023-05-28T10:34:29;19.80;41.30
75819;DHT22;64453;51.944;9.796;2023-05-28T10:37:00;19.90;40.60
75819;DHT22;64453;51.944;9.796;2023-05-28T10:39:38;19.80;38.30
75819;DHT22;64453;51.944;9.796;2023-05-28T10:42:06;20.00;38.10
75819;DHT22;64453;51.944;9.796;2023-05-28T10:45:07;20.00;39.10
75819;DHT22;64453;51.944;9.796;2023-05-28T10:47:36;20.00;41.80
75819;DHT22;64453;51.944;9.796;2023-05-28T10:50:14;20.00;42.20
75819;DHT22;64453;51.944;9.796;2023-05-28T10:52:41;20.20;38.20
75819;DHT22;64453;51.944;9.796;2023-05-28T10:55:11;20.20;40.90
75819;DHT22;64453;51.944;9.796;2023-05-28T10:57:39;20.30;38.50
75819;DHT22;64453;51.944;9.796;2023-05-28T11:00:08;20.20;41.20
75819;DHT22;64453;51.944;9.796;2023-05-28T11:02:39;20.40;40.70
75819;DHT22;64453;51.944;9.796;2023-05-28T11:05:07;20.30;40.30
75819;DHT22;64453;51.944;9.796;2023-05-28T11:07:36;20.40;37.90
75819;DHT22;64453;51.944;9.796;2023-05-28T11:10:05;20.50;38.00
75819;DHT22;64453;51.944;9.796;2023-05-28T11:12:37;20.40;41.40
75819;DHT22;64453;51.944;9.796;2023-05-28T11:15:07;20.30;39.70
75819;DHT22;64453;51.944;9.796;2023-05-28T11:17:37;20.50;41.60
75819;DHT22;64453;51.944;9.796;2023-05-28T11:20:05;20.50;41.30
75819;DHT22;64453;51.944;9.796;2023-05-28T11:22:42;20.50;40.60
75819;DHT22;64453;51.944;9.796;2023-05-28T11:25:10;20.50;40.80
75819;DHT22;64453;51.944;9.796;2023-05-28T11:27:39;20.50;40.50
75819;DHT22;64453;51.944;9.796;2023-05-28T11:30:09;20.60;37.30
75819;DHT22;64453;51.944;9.796;2023-05-28T11:32:38;20.60;40.00
75819;DHT22;64453;51.944;9.796;2023-05-28T11:35:05;20.70;39.30
75819;DHT22;64453;51.944;9.796;2023-05-28T11:37:34;20.70;36.80
75819;DHT22;64453;51.944;9.796;2023-05-28T11:40:03;20.80;40.30
75819;DHT22;64453;51.944;9.796;2023-05-28T11:42:32;20.80;39.80
75819;DHT22;64453;51.944;9.796;2023-05-28T11:45:01;20.90;38.90
75819;DHT22;64453;51.944;9.796;2023-05-28T11:47:31;20.90;37.50
75819;DHT22;64453;51.944;9.796;2023-05-28T11:49:59;20.90;38.90
75819;DHT22;64453;51.944;9.796;2023-05-28T11:52:32;20.90;41.90
75819;DHT22;64453;51.944;9.796;2023-05-28T11:55:00;20.90;41.70
75819;DHT22;64453;51.944;9.796;2023-05-28T11:57:28;20.90;42.90
75819;DHT22;64453;51.944;9.796;2023-05-28T12:00:02;21.00;41.70
75819;DHT22;64453;51.944;9.796;2023-05-28T12:02:41;21.00;41.40
75819;DHT22;64453;51.944;9.796;2023-05-28T12:05:09;21.10;41.30
75819;DHT22;64453;51.944;9.796;2023-05-28T12:07:36;21.10;41.30
75819;DHT22;64453;51.944;9.796;2023-05-28T12:10:07;21.20;41.80
75819;DHT22;64453;51.944;9.796;2023-05-28T12:12:39;21.30;42.50
75819;DHT22;64453;51.944;9.796;2023-05-28T12:15:10;21.40;41.10
75819;DHT22;64453;51.944;9.796;2023-05-28T12:17:38;21.40;39.30
75819;DHT22;64453;51.944;9.796;2023-05-28T12:20:07;21.40;40.80
75819;DHT22;64453;51.944;9.796;2023-05-28T12:23:02;21.60;42.20
75819;DHT22;64453;51.944;9.796;2023-05-28T12:25:45;21.50;40.50
75819;DHT22;64453;51.944;9.796;2023-05-28T12:28:14;21.60;40.70
75819;DHT22;64453;51.944;9.796;2023-05-28T12:30:45;21.70;40.90
75819;DHT22;64453;51.944;9.796;2023-05-28T12:33:16;21.80;38.00
75819;DHT22;64453;51.944;9.796;2023-05-28T12:35:43;21.80;39.20
75819;DHT22;64453;51.944;9.796;2023-05-28T12:38:11;21.90;40.20
75819;DHT22;64453;51.944;9.796;2023-05-28T12:40:39;21.90;39.20
75819;DHT22;64453;51.944;9.796;2023-05-28T12:43:06;22.00;40.50
75819;DHT22;64453;51.944;9.796;2023-05-28T12:45:34;22.00;39.90
75819;DHT22;64453;51.944;9.796;2023-05-28T12:48:02;22.00;39.30
75819;DHT22;64453;51.944;9.796;2023-05-28T12:50:29;22.00;39.80
75819;DHT22;64453;51.944;9.796;2023-05-28T12:52:56;22.00;38.90
75819;DHT22;64453;51.944;9.796;2023-05-28T12:55:23;21.80;39.90
75819;DHT22;64453;51.944;9.796;2023-05-28T12:57:51;21.90;39.40
75819;DHT22;64453;51.944;9.796;2023-05-28T13:00:18;22.00;39.90
75819;DHT22;64453;51.944;9.796;2023-05-28T13:02:46;22.10;39.40
75819;DHT22;64453;51.944;9.796;2023-05-28T13:05:15;22.20;40.20
75819;DHT22;64453;51.944;9.796;2023-05-28T13:07:42;22.20;39.00
75819;DHT22;64453;51.944;9.796;2023-05-28T13:10:10;22.20;41.40
75819;DHT22;64453;51.944;9.796;2023-05-28T13:12:37;22.30;41.20
75819;DHT22;64453;51.944;9.796;2023-05-28T13:15:05;22.30;39.30
75819;DHT22;64453;51.944;9.796;2023-05-28T13:17:33;22.30;39.70
75819;DHT22;64453;51.944;9.796;2023-05-28T13:20:00;22.30;41.10
75819;DHT22;64453;51.944;9.796;2023-05-28T13:22:31;22.20;37.10
75819;DHT22;64453;51.944;9.796;2023-05-28T13:25:00;22.40;38.60
75819;DHT22;64453;51.944;9.796;2023-05-28T13:27:28;22.40;41.60
75819;DHT22;64453;51.944;9.796;2023-05-28T13:29:55;22.50;41.40
75819;DHT22;64453;51.944;9.796;2023-05-28T13:32:22;22.50;39.90
75819;DHT22;64453;51.944;9.796;2023-05-28T13:34:49;22.60;39.30
75819;DHT22;64453;51.944;9.796;2023-05-28T13:37:17;22.60;38.90
75819;DHT22;64453;51.944;9.796;2023-05-28T13:39:45;22.60;38.30
75819;DHT22;64453;51.944;9.796;2023-05-28T13:42:12;22.60;41.00
75819;DHT22;64453;51.944;9.796;2023-05-28T13:44:45;22.70;37.80
75819;DHT22;64453;51.944;9.796;2023-05-28T13:47:12;22.70;38.80
75819;DHT22;64453;51.944;9.796;2023-05-28T13:49:39;22.70;38.20
75819;DHT22;64453;51.944;9.796;2023-05-28T13:52:07;22.80;36.90
75819;DHT22;64453;51.944;9.796;2023-05-28T13:54:34;23.00;37.90
75819;DHT22;64453;51.944;9.796;2023-05-28T13:57:02;22.90;39.10
75819;DHT22;64453;51.944;9.796;2023-05-28T13:59:29;23.00;38.40
75819;DHT22;64453;51.944;9.796;2023-05-28T14:01:56;23.00;39.00
75819;DHT22;64453;51.944;9.796;2023-05-28T14:04:23;23.10;37.80
75819;DHT22;64453;51.944;9.796;2023-05-28T14:06:50;23.10;36.90
75819;DHT22;64453;51.944;9.796;2023-05-28T14:09:19;23.20;35.30
75819;DHT22;64453;51.944;9.796;2023-05-28T14:11:46;23.40;37.20
75819;DHT22;64453;51.944;9.796;2023-05-28T14:14:14;23.30;37.00
75819;DHT22;64453;51.944;9.796;2023-05-28T14:16:41;23.30;38.10
75819;DHT22;64453;51.944;9.796;2023-05-28T14:19:08;23.30;38.30
75819;DHT22;64453;51.944;9.796;2023-05-28T14:21:35;23.50;37.00
75819;DHT22;64453;51.944;9.796;2023-05-28T14:24:02;23.60;37.40
75819;DHT22;64453;51.944;9.796;2023-05-28T14:26:29;23.70;37.80
75819;DHT22;64453;51.944;9.796;2023-05-28T14:28:56;23.70;34.70
75819;DHT22;64453;51.944;9.796;2023-05-28T14:31:24;23.70;33.50
75819;DHT22;64453;51.944;9.796;2023-05-28T14:33:50;23.70;33.20
75819;DHT22;64453;51.944;9.796;2023-05-28T14:36:17;23.80;34.30
75819;DHT22;64453;51.944;9.796;2023-05-28T14:38:44;23.60;34.50
75819;DHT22;64453;51.944;9.796;2023-05-28T14:41:11;23.70;37.30
75819;DHT22;64453;51.944;9.796;2023-05-28T14:43:38;23.80;36.70
75819;DHT22;64453;51.944;9.796;2023-05-28T14:46:04;23.90;35.80
75819;DHT22;64453;51.944;9.796;2023-05-28T14:48:32;23.90;36.00
75819;DHT22;64453;51.944;9.796;2023-05-28T14:50:59;23.90;35.80
75819;DHT22;64453;51.944;9.796;2023-05-28T14:53:26;24.00;35.20
75819;DHT22;64453;51.944;9.796;2023-05-28T14:55:53;24.10;33.30
75819;DHT22;64453;51.944;9.796;2023-05-28T14:58:20;24.10;35.30
75819;DHT22;64453;51.944;9.796;2023-05-28T15:00:49;24.10;35.10
75819;DHT22;64453;51.944;9.796;2023-05-28T15:03:16;24.20;34.70
75819;DHT22;64453;51.944;9.796;2023-05-28T15:05:44;24.30;34.40
75819;DHT22;64453;51.944;9.796;2023-05-28T15:08:11;24.40;34.60
75819;DHT22;64453;51.944;9.796;2023-05-28T15:10:38;24.30;34.10
75819;DHT22;64453;51.944;9.796;2023-05-28T15:13:04;24.30;33.70
75819;DHT22;64453;51.944;9.796;2023-05-28T15:15:31;24.40;33.50
75819;DHT22;64453;51.944;9.796;2023-05-28T15:17:58;24.50;33.60
75819;DHT22;64453;51.944;9.796;2023-05-28T15:20:25;24.60;34.70
75819;DHT22;64453;51.944;9.796;2023-05-28T15:22:53;24.60;31.20
75819;DHT22;64453;51.944;9.796;2023-05-28T15:25:20;24.70;33.40
75819;DHT22;64453;51.944;9.796;2023-05-28T15:27:49;24.70;32.70
75819;DHT22;64453;51.944;9.796;2023-05-28T15:30:18;24.90;34.80
75819;DHT22;64453;51.944;9.796;2023-05-28T15:32:46;25.20;34.30
75819;DHT22;64453;51.944;9.796;2023-05-28T15:35:13;25.50;32.30